createdAt,value
2023-04-15T00:00:48.194Z,7.12
2023-04-15T00:03:35.330Z,7.13
2023-04-15T00:06:22.633Z,7.11
2023-04-15T00:09:09.414Z,7.11
2023-04-15T00:11:56.226Z,7.10
2023-04-15T00:14:43.015Z,7.08
2023-04-15T00:17:30.241Z,7.09
2023-04-15T00:20:17.084Z,7.07
2023-04-15T00:23:04.234Z,7.01
2023-04-15T00:25:51.409Z,7.04
2023-04-15T00:28:38.182Z,7.00
2023-04-15T00:31:25.014Z,7.03
2023-04-15T00:34:11.913Z,6.99
2023-04-15T00:36:58.753Z,7.00
2023-04-15T00:39:45.559Z,6.98
2023-04-15T00:42:32.586Z,6.98
2023-04-15T00:45:19.649Z,6.96
2023-04-15T00:48:06.639Z,6.97
2023-04-15T00:50:53.516Z,6.96
2023-04-15T00:53:40.628Z,6.92
2023-04-15T00:56:28.894Z,6.89
2023-04-15T00:59:17.588Z,6.87
2023-04-15T01:02:05.516Z,6.84
2023-04-15T01:04:52.678Z,6.84
2023-04-15T01:07:39.496Z,6.85
2023-04-15T01:10:27.218Z,6.85
2023-04-15T01:13:14.050Z,6.85
2023-04-15T01:16:01.034Z,6.85
2023-04-15T01:18:48.924Z,6.82
2023-04-15T01:21:39.149Z,6.82
2023-04-15T01:24:27.595Z,6.81
2023-04-15T01:27:14.747Z,6.81
2023-04-15T01:30:01.574Z,6.82
2023-04-15T01:32:48.562Z,6.80
2023-04-15T01:35:35.449Z,6.81
2023-04-15T01:38:22.322Z,6.83
2023-04-15T01:41:09.140Z,6.82
2023-04-15T01:43:55.972Z,6.82
2023-04-15T01:46:42.885Z,6.82
2023-04-15T01:49:29.731Z,6.82
2023-04-15T01:52:16.545Z,6.78
2023-04-15T01:55:03.537Z,6.77
2023-04-15T01:57:50.394Z,6.78
2023-04-15T02:00:37.249Z,6.74
2023-04-15T02:03:25.615Z,6.72
2023-04-15T02:06:12.867Z,6.76
2023-04-15T02:08:59.934Z,6.77
2023-04-15T02:11:47.030Z,6.79
2023-04-15T02:14:33.905Z,6.79
2023-04-15T02:17:20.829Z,6.80
2023-04-15T02:20:09.108Z,6.84
2023-04-15T02:22:56.170Z,6.85
2023-04-15T02:25:42.944Z,6.90
2023-04-15T02:28:40.498Z,6.93
2023-04-15T02:31:27.343Z,6.96
2023-04-15T02:34:14.276Z,6.97
2023-04-15T02:37:04.890Z,6.99
2023-04-15T02:39:52.504Z,7.03
2023-04-15T02:42:40.834Z,7.03
2023-04-15T02:45:31.045Z,7.04
2023-04-15T02:48:20.991Z,7.03
2023-04-15T02:51:15.270Z,7.06
2023-04-15T02:54:02.059Z,7.07
2023-04-15T02:56:49.089Z,7.09
2023-04-15T02:59:35.923Z,7.08
2023-04-15T03:02:23.143Z,7.13
2023-04-15T03:05:14.198Z,7.15
2023-04-15T03:08:07.193Z,7.16
2023-04-15T03:10:53.956Z,7.16
2023-04-15T03:13:42.834Z,7.20
2023-04-15T03:16:40.565Z,7.22
2023-04-15T03:19:27.664Z,7.20
2023-04-15T03:22:14.442Z,7.26
2023-04-15T03:25:01.316Z,7.29
2023-04-15T03:27:48.229Z,7.31
2023-04-15T03:30:35.150Z,7.33
2023-04-15T03:33:22.004Z,7.37
2023-04-15T03:36:08.853Z,7.40
2023-04-15T03:38:55.685Z,7.40
2023-04-15T03:41:42.510Z,7.41
2023-04-15T03:44:29.329Z,7.42
2023-04-15T03:47:16.130Z,7.45
2023-04-15T03:50:03.145Z,7.46
2023-04-15T03:52:51.147Z,7.46
2023-04-15T03:55:38.087Z,7.50
2023-04-15T03:58:24.837Z,7.49
2023-04-15T04:01:11.701Z,7.50
2023-04-15T04:03:58.731Z,7.51
2023-04-15T04:06:45.700Z,7.52
2023-04-15T04:09:32.538Z,7.51
2023-04-15T04:12:19.524Z,7.52
2023-04-15T04:15:06.853Z,7.50
2023-04-15T04:17:53.746Z,7.54
2023-04-15T04:20:40.596Z,7.54
2023-04-15T04:23:27.540Z,7.55
2023-04-15T04:26:14.363Z,7.54
2023-04-15T04:29:01.391Z,7.52
2023-04-15T04:31:48.577Z,7.48
2023-04-15T04:34:35.462Z,7.52
2023-04-15T04:37:22.262Z,7.52
2023-04-15T04:40:09.593Z,7.51
2023-04-15T04:42:56.455Z,7.48
2023-04-15T04:45:43.261Z,7.47
2023-04-15T04:48:30.089Z,7.45
2023-04-15T04:51:18.377Z,7.46
2023-04-15T04:54:05.278Z,7.43
2023-04-15T04:56:52.107Z,7.41
2023-04-15T04:59:39.217Z,7.39
2023-04-15T05:02:26.131Z,7.41
2023-04-15T05:05:13.027Z,7.40
2023-04-15T05:07:59.853Z,7.39
2023-04-15T05:10:46.809Z,7.38
2023-04-15T05:13:33.656Z,7.34
2023-04-15T05:16:20.525Z,7.39
2023-04-15T05:19:07.473Z,7.36
2023-04-15T05:21:54.413Z,7.36
2023-04-15T05:24:41.241Z,7.39
2023-04-15T05:27:28.037Z,7.39
2023-04-15T05:30:14.817Z,7.38
2023-04-15T05:33:01.725Z,7.40
2023-04-15T05:35:48.574Z,7.43
2023-04-15T05:38:35.341Z,7.40
2023-04-15T05:41:22.217Z,7.43
2023-04-15T05:44:08.972Z,7.47
2023-04-15T05:46:55.758Z,7.49
2023-04-15T05:49:42.519Z,7.50
2023-04-15T05:52:29.427Z,7.50
2023-04-15T05:55:16.276Z,7.56
2023-04-15T05:58:03.062Z,7.58
2023-04-15T06:00:49.884Z,7.59
2023-04-15T06:03:36.813Z,7.60
2023-04-15T06:06:24.077Z,7.61
2023-04-15T06:09:10.878Z,7.62
2023-04-15T06:11:58.879Z,7.61
2023-04-15T06:14:45.681Z,7.64
2023-04-15T06:17:32.518Z,7.66
2023-04-15T06:20:19.335Z,7.67
2023-04-15T06:23:06.158Z,7.69
2023-04-15T06:25:52.967Z,7.73
2023-04-15T06:28:39.769Z,7.74
2023-04-15T06:31:26.919Z,7.74
2023-04-15T06:34:13.739Z,7.78
2023-04-15T06:37:00.558Z,7.79
2023-04-15T06:39:47.375Z,7.80
2023-04-15T06:42:35.006Z,7.82
2023-04-15T06:45:21.769Z,7.84
2023-04-15T06:48:08.557Z,7.80
2023-04-15T06:50:55.412Z,7.84
2023-04-15T06:53:42.259Z,7.72
2023-04-15T06:56:29.311Z,7.80
2023-04-15T06:59:16.103Z,7.79
2023-04-15T07:02:03.056Z,7.81
2023-04-15T07:04:50.008Z,7.78
2023-04-15T07:07:36.850Z,7.80
2023-04-15T07:10:24.602Z,7.79
2023-04-15T07:13:12.880Z,7.81
2023-04-15T07:15:59.752Z,7.84
2023-04-15T07:18:46.606Z,7.85
2023-04-15T07:21:33.417Z,7.84
2023-04-15T07:24:20.262Z,7.90
2023-04-15T07:27:07.095Z,7.92
2023-04-15T07:29:53.880Z,7.95
2023-04-15T07:32:41.700Z,7.98
2023-04-15T07:35:28.509Z,8.06
2023-04-15T07:38:15.453Z,8.19
2023-04-15T07:41:02.308Z,8.31
2023-04-15T07:43:49.241Z,8.40
2023-04-15T07:46:36.206Z,8.50
2023-04-15T07:49:23.156Z,8.55
2023-04-15T07:52:09.977Z,8.62
2023-04-15T07:54:56.787Z,8.71
2023-04-15T07:57:43.630Z,8.78
2023-04-15T08:00:30.523Z,8.86
2023-04-15T08:03:17.415Z,8.92
2023-04-15T08:06:04.433Z,8.98
2023-04-15T08:08:51.247Z,9.04
2023-04-15T08:11:38.085Z,9.13
2023-04-15T08:14:24.980Z,9.21
2023-04-15T08:17:11.799Z,9.28
2023-04-15T08:19:58.598Z,9.35
2023-04-15T08:22:45.396Z,9.42
2023-04-15T08:25:32.206Z,9.47
2023-04-15T08:28:19.019Z,9.59
2023-04-15T08:31:06.052Z,9.70
2023-04-15T08:33:52.948Z,9.83
2023-04-15T08:36:39.773Z,10.00
2023-04-15T08:39:26.584Z,10.16
2023-04-15T08:42:17.452Z,10.25
2023-04-15T08:45:05.123Z,10.38
2023-04-15T08:47:56.015Z,10.42
2023-04-15T08:50:43.337Z,10.44
2023-04-15T08:53:30.546Z,10.44
2023-04-15T08:56:19.142Z,10.40
2023-04-15T08:59:07.217Z,10.49
2023-04-15T09:01:54.820Z,10.58
2023-04-15T09:04:41.599Z,10.70
2023-04-15T09:07:28.352Z,10.83
2023-04-15T09:10:15.144Z,10.94
2023-04-15T09:13:02.087Z,11.02
2023-04-15T09:15:48.910Z,11.14
2023-04-15T09:18:36.842Z,11.27
2023-04-15T09:21:24.589Z,11.40
2023-04-15T09:24:11.507Z,11.62
2023-04-15T09:26:58.384Z,11.92
2023-04-15T09:29:50.132Z,12.30
2023-04-15T09:32:47.687Z,12.75
2023-04-15T09:35:34.983Z,13.15
2023-04-15T09:38:21.791Z,13.41
2023-04-15T09:41:17.494Z,13.43
2023-04-15T09:44:04.566Z,13.45
2023-04-15T09:46:51.387Z,13.47
2023-04-15T09:49:38.321Z,13.55
2023-04-15T09:52:25.308Z,13.66
2023-04-15T09:55:13.777Z,13.86
2023-04-15T09:58:00.627Z,14.12
2023-04-15T10:00:48.870Z,14.50
2023-04-15T10:03:36.090Z,14.72
2023-04-15T10:06:25.878Z,14.84
2023-04-15T10:09:13.356Z,14.87
2023-04-15T10:12:00.305Z,14.73
2023-04-15T10:14:59.409Z,14.58
2023-04-15T10:17:48.460Z,14.73
2023-04-15T10:20:36.757Z,14.93
2023-04-15T10:23:23.676Z,14.92
2023-04-15T10:26:12.164Z,14.82
2023-04-15T10:29:00.190Z,14.77
2023-04-15T10:31:48.509Z,14.73
2023-04-15T10:34:35.938Z,14.78
2023-04-15T10:37:33.364Z,14.88
2023-04-15T10:40:27.824Z,15.13
2023-04-15T10:43:25.538Z,15.36
2023-04-15T10:46:12.362Z,15.46
2023-04-15T10:49:07.911Z,15.62
2023-04-15T10:51:58.608Z,15.72
2023-04-15T10:54:45.490Z,15.91
2023-04-15T10:57:38.466Z,16.03
2023-04-15T11:00:26.508Z,16.22
2023-04-15T11:03:13.473Z,16.35
2023-04-15T11:06:00.404Z,16.40
2023-04-15T11:09:00.178Z,16.37
2023-04-15T11:12:06.446Z,16.07
2023-04-15T11:14:53.300Z,15.82
2023-04-15T11:17:40.331Z,15.80
2023-04-15T11:20:27.179Z,15.77
2023-04-15T11:23:15.834Z,15.87
2023-04-15T11:26:05.320Z,15.94
2023-04-15T11:28:52.149Z,16.21
2023-04-15T11:31:38.979Z,16.43
2023-04-15T11:34:25.856Z,16.70
2023-04-15T11:37:12.715Z,16.83
2023-04-15T11:39:59.550Z,16.82
2023-04-15T11:42:49.626Z,16.78
2023-04-15T11:45:38.332Z,16.67
2023-04-15T11:48:33.496Z,16.51
2023-04-15T11:51:20.382Z,16.41
2023-04-15T11:54:07.471Z,16.41
2023-04-15T11:56:54.502Z,16.51
2023-04-15T11:59:46.021Z,16.61
2023-04-15T12:02:37.267Z,16.65
2023-04-15T12:05:24.365Z,16.75
2023-04-15T12:08:11.201Z,16.91
2023-04-15T12:10:59.464Z,17.01
2023-04-15T12:13:48.261Z,17.15
2023-04-15T12:16:48.394Z,17.24
2023-04-15T12:19:37.391Z,17.23
2023-04-15T12:22:24.250Z,17.19
2023-04-15T12:25:11.037Z,17.11
2023-04-15T12:27:57.810Z,17.00
2023-04-15T12:30:51.024Z,16.74
2023-04-15T12:33:38.302Z,16.51
2023-04-15T12:36:25.233Z,16.46
2023-04-15T12:39:12.825Z,16.43
2023-04-15T12:41:59.817Z,16.41
2023-04-15T12:44:46.771Z,16.33
2023-04-15T12:47:33.622Z,16.18
2023-04-15T12:50:20.424Z,16.14
2023-04-15T12:53:07.271Z,16.17
2023-04-15T12:55:54.542Z,16.17
2023-04-15T12:58:41.327Z,16.23
2023-04-15T13:01:28.154Z,16.42
2023-04-15T13:04:16.409Z,16.53
2023-04-15T13:07:03.440Z,16.68
2023-04-15T13:09:50.228Z,16.72
2023-04-15T13:12:37.088Z,16.68
2023-04-15T13:15:24.019Z,16.71
2023-04-15T13:18:10.869Z,16.63
2023-04-15T13:20:57.699Z,16.53
2023-04-15T13:23:44.523Z,16.35
2023-04-15T13:26:31.314Z,16.27
2023-04-15T13:29:18.146Z,16.18
2023-04-15T13:32:05.224Z,16.08
2023-04-15T13:34:52.202Z,16.13
2023-04-15T13:37:39.037Z,16.37
2023-04-15T13:40:25.856Z,16.77
2023-04-15T13:43:12.640Z,16.99
2023-04-15T13:45:59.616Z,17.15
2023-04-15T13:48:46.410Z,17.14
2023-04-15T13:51:33.231Z,17.34
2023-04-15T13:54:19.985Z,17.32
2023-04-15T13:57:07.000Z,17.14
2023-04-15T13:59:53.922Z,16.97
2023-04-15T14:02:41.141Z,16.75
2023-04-15T14:05:28.129Z,16.63
2023-04-15T14:08:14.928Z,16.91
2023-04-15T14:11:01.760Z,17.65
2023-04-15T14:13:48.539Z,17.98
2023-04-15T14:16:35.431Z,17.88
2023-04-15T14:19:22.246Z,17.65
2023-04-15T14:22:09.046Z,17.27
2023-04-15T14:24:55.838Z,17.44
2023-04-15T14:27:42.644Z,18.17
2023-04-15T14:30:29.493Z,18.88
2023-04-15T14:33:16.398Z,19.58
2023-04-15T14:36:03.405Z,20.27
2023-04-15T14:38:50.261Z,20.89
2023-04-15T14:41:37.138Z,21.49
2023-04-15T14:44:23.949Z,22.03
2023-04-15T14:47:10.748Z,22.41
2023-04-15T14:49:57.709Z,22.90
2023-04-15T14:52:44.573Z,23.27
2023-04-15T14:55:31.362Z,23.59
2023-04-15T14:58:18.202Z,23.80
2023-04-15T15:01:05.220Z,24.07
2023-04-15T15:03:52.178Z,24.26
2023-04-15T15:06:39.905Z,24.15
2023-04-15T15:09:27.029Z,23.47
2023-04-15T15:12:13.838Z,22.76
2023-04-15T15:15:02.920Z,22.20
2023-04-15T15:17:51.785Z,22.22
2023-04-15T15:20:38.594Z,22.29
2023-04-15T15:23:25.409Z,21.86
2023-04-15T15:26:12.554Z,21.30
2023-04-15T15:28:59.359Z,20.41
2023-04-15T15:31:46.412Z,19.50
2023-04-15T15:34:33.311Z,18.94
2023-04-15T15:37:20.174Z,18.50
2023-04-15T15:40:08.062Z,18.15
2023-04-15T15:42:54.891Z,17.78
2023-04-15T15:45:41.745Z,17.54
2023-04-15T15:48:28.581Z,17.27
2023-04-15T15:51:15.394Z,16.99
2023-04-15T15:54:02.272Z,16.69
2023-04-15T15:56:49.074Z,16.37
2023-04-15T15:59:35.882Z,16.05
2023-04-15T16:02:40.069Z,15.74
2023-04-15T16:05:29.424Z,15.50
2023-04-15T16:08:16.256Z,15.37
2023-04-15T16:11:03.129Z,15.23
2023-04-15T16:13:49.933Z,15.05
2023-04-15T16:16:38.652Z,14.94
2023-04-15T16:19:25.505Z,14.85
2023-04-15T16:22:12.363Z,14.76
2023-04-15T16:24:59.602Z,14.67
2023-04-15T16:27:58.957Z,14.59
2023-04-15T16:30:50.339Z,14.59
2023-04-15T16:33:37.397Z,14.54
2023-04-15T16:36:24.196Z,14.52
2023-04-15T16:39:11.023Z,14.45
2023-04-15T16:41:58.003Z,14.73
2023-04-15T16:44:44.828Z,15.11
2023-04-15T16:47:31.694Z,15.12
2023-04-15T16:50:18.628Z,15.07
2023-04-15T16:53:05.483Z,14.96
2023-04-15T16:55:52.312Z,14.88
2023-04-15T16:58:39.101Z,14.81
2023-04-15T17:01:26.003Z,14.74
2023-04-15T17:04:12.908Z,14.66
2023-04-15T17:06:59.851Z,14.59
2023-04-15T17:09:46.604Z,14.48
2023-04-15T17:12:33.497Z,14.57
2023-04-15T17:15:20.293Z,14.65
2023-04-15T17:18:07.106Z,14.69
2023-04-15T17:20:55.731Z,14.69
2023-04-15T17:23:42.577Z,14.70
2023-04-15T17:26:29.461Z,14.63
2023-04-15T17:29:16.281Z,14.54
2023-04-15T17:32:03.847Z,14.43
2023-04-15T17:34:51.348Z,14.34
2023-04-15T17:37:38.452Z,14.28
2023-04-15T17:40:25.283Z,14.22
2023-04-15T17:43:12.066Z,14.17
2023-04-15T17:45:58.848Z,14.12
2023-04-15T17:48:46.474Z,14.09
2023-04-15T17:51:33.361Z,14.05
2023-04-15T17:54:26.724Z,14.07
2023-04-15T17:57:13.656Z,14.08
2023-04-15T18:00:00.551Z,14.09
2023-04-15T18:02:47.407Z,14.10
2023-04-15T18:05:34.419Z,14.12
2023-04-15T18:08:21.293Z,14.14
2023-04-15T18:11:08.134Z,14.12
2023-04-15T18:13:54.960Z,14.12
2023-04-15T18:16:41.883Z,14.09
2023-04-15T18:19:29.749Z,14.07
2023-04-15T18:22:16.560Z,14.06
2023-04-15T18:25:04.045Z,14.02
2023-04-15T18:27:51.035Z,13.99
2023-04-15T18:30:37.893Z,13.94
2023-04-15T18:33:24.753Z,13.85
2023-04-15T18:36:11.587Z,13.78
2023-04-15T18:38:58.434Z,13.68
2023-04-15T18:41:45.248Z,13.60
2023-04-15T18:44:32.130Z,13.50
2023-04-15T18:47:19.324Z,13.43
2023-04-15T18:50:07.513Z,13.33
2023-04-15T18:52:54.364Z,13.21
2023-04-15T18:55:41.172Z,13.13
2023-04-15T18:58:27.980Z,13.05
2023-04-15T19:01:34.815Z,12.91
2023-04-15T19:04:21.828Z,12.81
2023-04-15T19:07:08.647Z,12.72
2023-04-15T19:09:55.536Z,12.61
2023-04-15T19:12:42.353Z,12.51
2023-04-15T19:15:29.605Z,12.41
2023-04-15T19:18:16.403Z,12.26
2023-04-15T19:21:03.350Z,12.14
2023-04-15T19:23:50.213Z,12.03
2023-04-15T19:26:37.036Z,11.88
2023-04-15T19:29:25.037Z,11.79
2023-04-15T19:32:11.844Z,11.69
2023-04-15T19:34:58.793Z,11.58
2023-04-15T19:37:47.423Z,11.47
2023-04-15T19:40:34.224Z,11.37
2023-04-15T19:43:21.074Z,11.29
2023-04-15T19:46:08.141Z,11.18
2023-04-15T19:48:55.336Z,11.10
2023-04-15T19:51:42.232Z,10.99
2023-04-15T19:54:29.042Z,10.93
2023-04-15T19:57:15.830Z,10.83
2023-04-15T20:00:02.670Z,10.76
2023-04-15T20:02:52.710Z,10.67
2023-04-15T20:05:39.636Z,10.59
2023-04-15T20:08:26.460Z,10.51
2023-04-15T20:11:15.197Z,10.43
2023-04-15T20:14:02.151Z,10.36
2023-04-15T20:16:49.265Z,10.25
2023-04-15T20:19:36.071Z,10.20
2023-04-15T20:22:22.954Z,10.12
2023-04-15T20:25:09.920Z,10.05
2023-04-15T20:27:56.715Z,9.99
2023-04-15T20:30:43.574Z,9.92
2023-04-15T20:33:30.508Z,9.84
2023-04-15T20:36:17.339Z,9.76
2023-04-15T20:39:07.074Z,9.68
2023-04-15T20:41:54.024Z,9.62
2023-04-15T20:44:40.835Z,9.55
2023-04-15T20:47:27.869Z,9.47
2023-04-15T20:50:14.772Z,9.44
2023-04-15T20:53:01.601Z,9.40
2023-04-15T20:55:48.523Z,9.31
2023-04-15T20:58:35.319Z,9.26
2023-04-15T21:01:22.206Z,9.20
2023-04-15T21:04:09.191Z,9.15
2023-04-15T21:06:56.065Z,9.08
2023-04-15T21:09:42.874Z,9.02
2023-04-15T21:12:29.702Z,8.94
2023-04-15T21:15:16.510Z,8.84
2023-04-15T21:18:03.358Z,8.80
2023-04-15T21:21:01.062Z,8.73
2023-04-15T21:23:47.851Z,8.68
2023-04-15T21:26:34.692Z,8.65
2023-04-15T21:29:21.510Z,8.60
2023-04-15T21:32:08.497Z,8.60
2023-04-15T21:34:55.365Z,8.59
2023-04-15T21:37:42.174Z,8.58
2023-04-15T21:40:29.569Z,8.55
2023-04-15T21:43:16.482Z,8.54
2023-04-15T21:46:23.229Z,8.52
2023-04-15T21:49:10.219Z,8.50
2023-04-15T21:51:57.056Z,8.47
2023-04-15T21:54:43.848Z,8.44
2023-04-15T21:57:30.641Z,8.40
2023-04-15T22:00:17.479Z,8.36
2023-04-15T22:03:04.389Z,8.33
2023-04-15T22:05:51.316Z,8.29
2023-04-15T22:08:48.250Z,8.26
2023-04-15T22:11:42.597Z,8.22
2023-04-15T22:14:30.150Z,8.21
2023-04-15T22:17:16.958Z,8.18
2023-04-15T22:20:03.994Z,8.13
2023-04-15T22:22:54.349Z,8.11
2023-04-15T22:25:41.323Z,8.06
2023-04-15T22:28:28.123Z,8.01
2023-04-15T22:31:14.958Z,8.03
2023-04-15T22:34:01.928Z,7.99
2023-04-15T22:36:49.683Z,7.96
2023-04-15T22:39:36.540Z,7.93
2023-04-15T22:42:24.506Z,7.90
2023-04-15T22:45:11.485Z,7.87
2023-04-15T22:47:58.330Z,7.86
2023-04-15T22:50:45.313Z,7.82
2023-04-15T22:53:32.187Z,7.78
2023-04-15T22:56:21.100Z,7.77
2023-04-15T22:59:08.300Z,7.74
2023-04-15T23:01:55.349Z,7.70
2023-04-15T23:04:42.339Z,7.67
2023-04-15T23:07:29.212Z,7.65
2023-04-15T23:10:16.037Z,7.61
2023-04-15T23:13:02.816Z,7.60
2023-04-15T23:15:49.698Z,7.60
2023-04-15T23:18:36.520Z,7.59
2023-04-15T23:21:25.509Z,7.57
2023-04-15T23:24:12.946Z,7.55
2023-04-15T23:26:59.762Z,7.54
2023-04-15T23:29:46.554Z,7.52
2023-04-15T23:32:33.449Z,7.51
2023-04-15T23:35:20.250Z,7.49
2023-04-15T23:38:07.053Z,7.48
2023-04-15T23:40:53.855Z,7.47
2023-04-15T23:43:40.646Z,7.45
2023-04-15T23:46:27.539Z,7.41
2023-04-15T23:49:14.554Z,7.42
2023-04-15T23:52:01.403Z,7.40
2023-04-15T23:54:48.210Z,7.39
2023-04-15T23:57:34.974Z,7.34
